Terminal Aerodrome Forecast
Issued by NWS

Home | Current Version | Previous Version | Text Only | Print | Product List | Glossary On
Versions: 1 2 3 4 5 6 7 8 9 10 11 12 13
794
FTUS46 KSEW 261723
TAFBFI
TAF
KBFI 261723Z 2618/2718 32006KT P6SM SKC
     FM270400 VRB03KT P6SM SCT250
     FM270800 20006KT P6SM SCT250
     FM271500 19006KT P6SM BKN015=

USA.gov is the U.S. government's official web portal to all federal, state and local government web resources and services.